Flight Track Log - Related Links

Times and Time Zones

All times are in EDT time to prevent confusion due to time zone crossing. See the SWA1031 flight status page for this flight to view local times or setup timezone preferences in your user account.

Time Position Orientation Groundspeed Altitude Reporting Facility
EDT Latitude Longitude Course Direction KTS MPH feet Rate Location/Type
Wed 04:51:40 PM 34.0806 -117.7869 316° Northwest 243 280 6,800  Level Los Angeles Center
Wed 04:52:42 PM 34.1369 -117.8539 316° Northwest 286 329 10,100 3,194 Climbing Los Angeles Center
Wed 04:53:44 PM 34.1939 -117.9200 316° Northwest 287 330 13,400 3,097 Climbing Los Angeles Center
Wed 04:54:46 PM 34.2631 -117.9722 328° Northwest 310 357 16,500 2,419 Climbing Los Angeles Center
Wed 04:55:48 PM 34.3381 -117.8794 46° Northeast 362 417 18,400 1,984 Climbing Los Angeles Center
Wed 04:56:50 PM 34.3411 -117.7456 88° East 394 453 20,600 2,177 Climbing Los Angeles Center
Wed 04:57:52 PM 34.3667 -117.6114 77° East 416 479 22,900 2,177 Climbing Los Angeles Center
Wed 04:58:54 PM 34.4342 -117.4972 54° Northeast 422 486 25,100 1,920 Climbing Los Angeles Center
Wed 04:59:57 PM 34.5028 -117.3781 55° Northeast 428 493 26,900 1,728 Climbing Los Angeles Center
Wed 05:00:59 PM 34.5889 -117.2289 55° Northeast 450 518 28,700 1,344 Climbing Los Angeles Center
Wed 05:02:02 PM 34.6633 -117.0986 55° Northeast 470 541 29,700 1,190 Climbing Los Angeles Center
Wed 05:03:05 PM 34.7411 -116.9633 55° Northeast 488 562 31,200 1,742 Climbing Los Angeles Center
Wed 05:04:06 PM 34.8192 -116.8281 55° Northeast 492 566 33,300 1,854 Climbing Los Angeles Center
Wed 05:05:08 PM 34.9044 -116.7089 49° Northeast 470 541 35,000 1,452 Climbing Los Angeles Center
Wed 05:06:10 PM 34.9936 -116.5939 47° Northeast 470 541 36,300 968 Climbing Los Angeles Center
Wed 05:07:12 PM 35.1006 -116.4550 47° Northeast 471 542 37,000 339 Climbing Los Angeles Center
Wed 05:08:14 PM 35.1911 -116.3389 46° Northeast 473 544 37,000  Level Los Angeles Center
Wed 05:09:28 PM 35.2961 -116.1967 48° Northeast 470 541 37,000  Level Los Angeles Center
Wed 05:10:30 PM 35.3856 -116.0792 47° Northeast 469 540 37,000  Level Los Angeles Center
Wed 05:11:32 PM 35.4769 -115.9631 46° Northeast 473 544 37,000  Level Los Angeles Center
Wed 05:12:34 PM 35.5858 -115.8228 46° Northeast 469 540 37,000  Level Los Angeles Center
Wed 05:13:36 PM 35.6700 -115.7025 49° Northeast 466 536 37,000  Level Los Angeles Center
Wed 05:14:38 PM 35.7222 -115.5525 67° East 479 551 37,000  Level Los Angeles Center
Wed 05:15:40 PM 35.7722 -115.4036 67° East 478 550 37,000  Level Los Angeles Center
Wed 05:16:42 PM 35.8225 -115.2539 67° East 476 548 37,000  Level Los Angeles Center
Wed 05:17:56 PM 35.8794 -115.0731 69° East 476 548 37,000  Level Los Angeles Center
Wed 05:19:11 PM 35.9503 -114.8619 67° East 478 550 37,000  Level Los Angeles Center
Wed 05:20:13 PM 35.9997 -114.7108 68° East 476 548 37,000  Level Los Angeles Center
Wed 05:21:15 PM 36.0478 -114.5603 68° East 473 544 37,000  Level Los Angeles Center
Wed 05:22:17 PM 36.0972 -114.4111 68° East 471 542 37,000  Level Los Angeles Center
Wed 05:23:19 PM 36.1558 -114.2306 68° East 473 544 37,000  Level Los Angeles Center
Wed 05:24:21 PM 36.2047 -114.0794 68° East 475 547 37,000  Level Los Angeles Center
Wed 05:25:23 PM 36.2533 -113.9275 68° East 475 547 37,000  Level Los Angeles Center
Wed 05:26:26 PM 36.3019 -113.7742 68° East 478 550 37,000  Level Los Angeles Center
Wed 05:27:28 PM 36.3508 -113.6206 68° East 480 552 37,000  Level Los Angeles Center
Wed 05:28:30 PM 36.3997 -113.4664 68° East 481 554 37,000  Level Los Angeles Center
Wed 05:29:32 PM 36.4567 -113.2819 69° East 478 550 37,000  Level Los Angeles Center
Wed 05:30:34 PM 36.4997 -113.1447 69° East 477 549 37,000  Level Los Angeles Center
Wed 05:31:36 PM 36.5575 -112.9625 68° East 475 547 37,000  Level Los Angeles Center
Wed 05:32:38 PM 36.6033 -112.8097 69° East 474 545 37,000  Level Los Angeles Center
Wed 05:33:40 PM 36.6503 -112.6581 69° East 472 543 37,000  Level Los Angeles Center
Wed 05:34:43 PM 36.6967 -112.5058 69° East 472 543 37,000  Level Los Angeles Center
Wed 05:35:45 PM 36.7439 -112.3528 69° East 475 547 37,000  Level Los Angeles Center
Wed 05:36:47 PM 36.7892 -112.1997 70° East 474 545 37,000  Level Los Angeles Center
Wed 05:37:49 PM 36.8450 -112.0156 69° East 475 547 37,000  Level Los Angeles Center
Wed 05:38:08 PM 36.8547 -111.9833 69° East 478 550 37,000  Level Denver Center
Wed 05:39:10 PM 36.9017 -111.8308 69° East 475 547 37,000  Level Denver Center
Wed 05:40:11 PM 36.9561 -111.6478 70° East 472 543 37,000 244 Level Denver Center
Wed 05:41:13 PM 37.0006 -111.4947 70° East 471 542 37,500 581 Climbing Denver Center
Wed 05:42:15 PM 37.0425 -111.3433 71° East 467 537 38,200 726 Climbing Denver Center
Wed 05:43:17 PM 37.0894 -111.1878 69° East 476 548 39,000 390 Climbing Denver Center
Wed 05:44:18 PM 37.1347 -111.0325 70° East 476 548 39,000  Level Denver Center
Wed 05:45:20 PM 37.1775 -110.8786 71° East 471 542 39,000  Level Denver Center
Wed 05:46:22 PM 37.2308 -110.6942 70° East 472 543 39,000  Level Denver Center
Wed 05:47:24 PM 37.2747 -110.5406 70° East 469 540 39,000  Level Denver Center
Wed 05:48:26 PM 37.3178 -110.3858 71° East 471 542 39,000  Level Denver Center
Wed 05:49:27 PM 37.3606 -110.2325 71° East 468 539 39,000  Level Denver Center
Wed 05:50:29 PM 37.4056 -110.0717 71° East 466 536 39,000  Level Denver Center
Wed 05:51:31 PM 37.4461 -109.9250 71° East 465 535 39,000  Level Denver Center
Wed 05:52:33 PM 37.4936 -109.7528 71° East 464 534 39,000  Level Denver Center
Wed 05:53:47 PM 37.5339 -109.6047 71° East 465 535 39,000  Level Denver Center
Wed 05:54:49 PM 37.5894 -109.4047 71° East 471 542 39,000  Level Denver Center
Wed 05:55:50 PM 37.6225 -109.2794 72° East 471 542 39,000  Level Denver Center
Wed 05:56:53 PM 37.6769 -109.0781 71° East 474 545 39,000  Level Denver Center
Wed 05:57:55 PM 37.7175 -108.9272 71° East 473 544 39,000  Level Denver Center
Wed 05:58:56 PM 37.7642 -108.7494 72° East 477 549 39,000  Level Denver Center
Wed 05:59:58 PM 37.8039 -108.5964 72° East 477 549 39,000  Level Denver Center
Wed 06:01:00 PM 37.8503 -108.4222 71° East 471 542 39,000  Level Denver Center
Wed 06:02:14 PM 37.8900 -108.2708 72° East 473 544 39,000  Level Denver Center
Wed 06:03:16 PM 37.9425 -108.0669 72° East 475 547 39,000  Level Denver Center
Wed 06:04:18 PM 37.9814 -107.9136 72° East 477 549 39,000  Level Denver Center
Wed 06:05:20 PM 38.0264 -107.7378 72° East 472 543 39,000  Level Denver Center
Wed 06:06:22 PM 38.0575 -107.6111 73° East 469 540 39,000  Level Denver Center
Wed 06:07:24 PM 38.1042 -107.4294 72° East 468 539 39,000  Level Denver Center
Wed 06:08:26 PM 38.1475 -107.2564 72° East 461 531 39,000  Level Denver Center
Wed 06:09:28 PM 38.1872 -107.0969 72° East 462 532 39,000  Level Denver Center
Wed 06:10:30 PM 38.2247 -106.9431 73° East 455 524 39,000  Level Denver Center
Wed 06:11:32 PM 38.2625 -106.7892 73° East 454 522 39,000  Level Denver Center
Wed 06:12:34 PM 38.3047 -106.6156 73° East 460 529 39,000  Level Denver Center
Wed 06:13:36 PM 38.3372 -106.4800 73° East 458 527 39,000  Level Denver Center
Wed 06:14:37 PM 38.3747 -106.3242 73° East 461 531 39,000  Level Denver Center
Wed 06:15:39 PM 38.4208 -106.1353 73° East 465 535 39,000  Level Denver Center
Wed 06:16:41 PM 38.4575 -105.9833 73° East 468 539 39,000  Level Denver Center
Wed 06:17:43 PM 38.4972 -105.8072 74° East 465 535 39,000  Level Denver Center
Wed 06:18:45 PM 38.5336 -105.6547 73° East 467 537 39,000  Level Denver Center
Wed 06:19:47 PM 38.5747 -105.4786 73° East 464 534 39,000  Level Denver Center
Wed 06:20:49 PM 38.6083 -105.3267 74° East 464 534 39,000  Level Denver Center
Wed 06:21:51 PM 38.6431 -105.1753 74° East 463 533 39,000  Level Denver Center
Wed 06:22:53 PM 38.6831 -105.0000 74° East 459 528 39,000  Level Denver Center
Wed 06:23:54 PM 38.7117 -104.8719 74° East 465 535 39,000  Level Denver Center
Wed 06:24:56 PM 38.7569 -104.6708 74° East 461 531 39,000  Level Denver Center
Wed 06:26:10 PM 38.7914 -104.5183 74° East 463 533 39,000  Level Denver Center
Wed 06:27:13 PM 38.8356 -104.3156 74° East 462 532 39,000  Level Denver Center
Wed 06:28:15 PM 38.8683 -104.1653 74° East 459 528 39,000  Level Denver Center
Wed 06:29:17 PM 38.9072 -103.9889 74° East 460 529 39,000  Level Denver Center
Wed 06:30:18 PM 38.9397 -103.8367 75° East 461 531 39,000  Level Denver Center
Wed 06:31:20 PM 38.9781 -103.6572 75° East 466 536 39,000  Level Denver Center
Wed 06:32:22 PM 39.0114 -103.5031 74° East 466 536 39,000  Level Denver Center
Wed 06:33:24 PM 39.0494 -103.3231 75° East 465 535 39,000  Level Denver Center
Wed 06:34:26 PM 39.0803 -103.1689 76° East 464 534 39,000  Level Denver Center
Wed 06:35:28 PM 39.1133 -103.0153 74° East 464 534 39,000  Level Denver Center
Wed 06:36:30 PM 39.1500 -102.8336 75° East 467 537 39,000  Level Denver Center
Wed 06:37:44 PM 39.1869 -102.6597 75° East 470 541 39,000  Level Denver Center
Wed 06:38:46 PM 39.2175 -102.5025 76° East 473 544 39,000  Level Denver Center
Wed 06:39:48 PM 39.2594 -102.2939 75° East 470 541 39,000  Level Denver Center
Wed 06:40:50 PM 39.2903 -102.1414 75° East 461 531 39,000  Level Denver Center
Wed 06:41:52 PM 39.3153 -102.0172 75° East 451 519 39,000  Level Denver Center
Wed 06:42:54 PM 39.3567 -101.8053 76° East 452 520 39,000  Level Denver Center
Wed 06:43:56 PM 39.3858 -101.6542 76° East 454 522 39,000  Level Denver Center
Wed 06:44:58 PM 39.4206 -101.4792 76° East 453 521 39,000  Level Denver Center
Wed 06:46:00 PM 39.4492 -101.3289 76° East 451 519 39,000  Level Denver Center
Wed 06:47:01 PM 39.4822 -101.1539 76° East 450 518 39,000  Level Denver Center
Wed 06:48:03 PM 39.5108 -101.0042 76° East 447 514 39,000  Level Denver Center
Wed 06:49:05 PM 39.5386 -100.8531 77° East 450 518 39,000  Level Denver Center
Wed 06:50:07 PM 39.5714 -100.6742 77° East 456 525 39,000  Level Denver Center
Wed 06:51:09 PM 39.6006 -100.5214 76° East 457 526 39,000  Level Denver Center
Wed 06:52:11 PM 39.6328 -100.3406 77° East 460 529 39,000  Level Denver Center
Wed 06:53:13 PM 39.6608 -100.1867 77° East 460 529 39,000  Level Denver Center
Wed 06:54:14 PM 39.6892 -100.0294 77° East 466 536 39,000  Level Denver Center
Wed 06:55:16 PM 39.7233 -99.8297 77° East 461 531 39,000  Level Denver Center
Wed 06:56:18 PM 39.7525 -99.6664 77° East 464 534 39,000  Level Denver Center
Wed 06:57:20 PM 39.7806 -99.5031 77° East 463 533 39,000  Level Denver Center
Wed 06:58:22 PM 39.8094 -99.3383 77° East 465 535 39,000  Level Denver Center
Wed 06:59:24 PM 39.8372 -99.1744 78° East 465 535 39,000  Level Denver Center
Wed 07:00:26 PM 39.8650 -99.0078 78° East 472 543 39,000  Level Denver Center
Wed 07:01:07 PM 39.8875 -98.8767 77° East 470 541 39,000  Level Minneapolis Center
Wed 07:01:27 PM 39.8875 -98.8761 90° East 469 540 39,000  Level Denver Center
Wed 07:02:09 PM 39.9158 -98.7153 77° East 463 533 39,000  Level Minneapolis Center
Wed 07:03:11 PM 39.9417 -98.5517 78° East 462 532 39,000  Level Minneapolis Center
Wed 07:04:13 PM 39.9681 -98.3892 78° East 461 531 39,000  Level Minneapolis Center
Wed 07:05:16 PM 39.9994 -98.1925 78° East 463 533 39,000  Level Minneapolis Center
Wed 07:06:18 PM 40.0253 -98.0289 78° East 464 534 39,000  Level Minneapolis Center
Wed 07:07:20 PM 40.0522 -97.8644 78° East 464 534 39,000  Level Minneapolis Center
Wed 07:08:22 PM 40.0786 -97.6969 78° East 470 541 39,000  Level Minneapolis Center
Wed 07:09:24 PM 40.1042 -97.5286 79° East 473 544 39,000  Level Minneapolis Center
Wed 07:10:26 PM 40.1303 -97.3600 78° East 474 545 39,000  Level Minneapolis Center
Wed 07:11:28 PM 40.1600 -97.1625 79° East 477 549 39,000  Level Minneapolis Center
Wed 07:12:30 PM 40.1856 -96.9925 79° East 478 550 39,000  Level Minneapolis Center
Wed 07:13:32 PM 40.2119 -96.8194 79° East 483 556 39,000  Level Minneapolis Center
Wed 07:14:34 PM 40.2361 -96.6489 79° East 482 555 39,000  Level Minneapolis Center
Wed 07:15:36 PM 40.2603 -96.4803 79° East 476 548 39,000  Level Minneapolis Center
Wed 07:16:39 PM 40.2903 -96.2772 79° East 475 547 39,000  Level Minneapolis Center
Wed 07:17:41 PM 40.3150 -96.1072 79° East 477 549 39,000  Level Minneapolis Center
Wed 07:18:43 PM 40.3386 -95.9372 80° East 477 549 39,000  Level Minneapolis Center
Wed 07:19:45 PM 40.3628 -95.7622 80° East 484 557 39,000  Level Minneapolis Center
Wed 07:20:47 PM 40.3867 -95.5917 80° East 481 554 39,000  Level Minneapolis Center
Wed 07:21:49 PM 40.4142 -95.3867 80° East 478 550 39,000  Level Minneapolis Center
Wed 07:22:51 PM 40.4372 -95.2186 80° East 473 544 39,000  Level Minneapolis Center
Wed 07:23:53 PM 40.4589 -95.0511 80° East 470 541 39,000  Level Minneapolis Center
Wed 07:24:55 PM 40.4814 -94.8847 80° East 466 536 39,000  Level Minneapolis Center
Wed 07:25:57 PM 40.5028 -94.7164 80° East 467 537 39,000  Level Minneapolis Center
Wed 07:26:59 PM 40.5236 -94.5486 81° East 466 536 39,000  Level Minneapolis Center
Wed 07:28:02 PM 40.5486 -94.3456 81° East 469 540 39,000  Level Minneapolis Center
Wed 07:29:04 PM 40.5692 -94.1783 81° East 469 540 39,000  Level Minneapolis Center
Wed 07:30:06 PM 40.5922 -94.0117 80° East 467 537 39,000  Level Minneapolis Center
Wed 07:31:08 PM 40.6186 -93.8453 78° East 467 537 39,000  Level Minneapolis Center
Wed 07:32:10 PM 40.6428 -93.6792 79° East 466 536 39,000  Level Minneapolis Center
Wed 07:33:12 PM 40.6717 -93.4792 79° East 466 536 39,000  Level Minneapolis Center
Wed 07:34:14 PM 40.6978 -93.3119 78° East 468 539 39,000 -774 Level Minneapolis Center
Wed 07:35:16 PM 40.7189 -93.1472 80° East 463 533 37,400 -1,258 Descending Minneapolis Center
Wed 07:36:18 PM 40.7444 -92.9758 79° East 471 542 36,400 -1,032 Descending Minneapolis Center
Wed 07:36:49 PM 40.7586 -92.8692 80° East 480 552 35,800 -1,032 Descending Chicago Center
Wed 07:37:51 PM 40.7819 -92.6919 80° East 489 563 34,800 -968 Descending Chicago Center
Wed 07:38:53 PM 40.8047 -92.5194 80° East 479 551 33,800 -968 Descending Chicago Center
Wed 07:39:55 PM 40.8281 -92.3506 80° East 471 542 32,800 -871 Descending Chicago Center
Wed 07:40:57 PM 40.8503 -92.1850 80° East 461 531 32,000 -387 Descending Chicago Center
Wed 07:41:59 PM 40.8719 -92.0172 80° East 465 535 32,000  Level Chicago Center
Wed 07:43:01 PM 40.8975 -91.8172 80° East 464 534 32,000  Level Chicago Center
Wed 07:44:03 PM 40.9189 -91.6494 80° East 465 535 32,000  Level Chicago Center
Wed 07:45:05 PM 40.9394 -91.4814 81° East 465 535 32,000 -1,065 Level Chicago Center
Wed 07:46:07 PM 40.9597 -91.3164 81° East 460 529 29,800 -2,371 Descending Chicago Center
Wed 07:47:09 PM 40.9831 -91.1297 81° East 451 519 27,100 -2,516 Descending Chicago Center
Wed 07:48:11 PM 41.0019 -90.9728 81° East 437 503 24,600 -1,887 Descending Chicago Center
Wed 07:49:13 PM 41.0208 -90.8117 81° East 440 506 23,200 -774 Descending Chicago Center
Wed 07:50:15 PM 41.0403 -90.6464 81° East 450 518 23,000 -97 Descending Chicago Center
Wed 07:51:17 PM 41.0603 -90.4814 81° East 452 520 23,000  Level Chicago Center
Wed 07:52:19 PM 41.0803 -90.3167 81° East 450 518 23,000  Level Chicago Center
Wed 07:53:21 PM 41.0983 -90.1514 82° East 450 518 23,000 -629 Level Chicago Center
Wed 07:54:23 PM 41.1164 -89.9847 82° East 453 521 21,700 -2,195 Descending Chicago Center
Wed 07:55:24 PM 41.1378 -89.7933 81° East 435 501 18,500 -2,927 Descending Chicago Center
Wed 07:56:26 PM 41.1553 -89.6397 81° East 424 488 15,700 -1,935 Descending Chicago Center
Wed 07:57:28 PM 41.1669 -89.4931 84° East 406 467 14,500 -1,065 Descending Chicago Center
Wed 07:58:30 PM 41.1767 -89.3519 85° East 390 449 13,500 -968 Descending Chicago Center
Wed 07:59:32 PM 41.1861 -89.2089 85° East 388 447 12,500 -960 Descending Chicago Center
Wed 08:00:35 PM 41.2086 -89.0675 78° East 389 448 11,500 -720 Descending Chicago Center
Wed 08:01:37 PM 41.2631 -88.9533 58° Northeast 371 427 11,000 -774 Descending Chicago Center
Wed 08:02:39 PM 41.3206 -88.8239 59° Northeast 341 392 9,900 -1,065 Descending Chicago Center
Wed 08:03:41 PM 41.3628 -88.7322 58° Northeast 298 343 8,800 -1,258 Descending Chicago Center
Wed 08:04:43 PM 41.4006 -88.6414 61° Northeast 288 331 7,300 -1,355 Descending Chicago Center
Wed 08:05:45 PM 41.4347 -88.5461 64° Northeast 286 329 6,000 -629 Descending Chicago Center
Wed 08:06:47 PM 41.4669 -88.4522 65° Northeast 284 327 6,000  Level Chicago Center
Wed 08:07:49 PM 41.4994 -88.3578 65° Northeast 282 325 6,000 -581 Level Chicago Center
Wed 08:08:51 PM 41.5394 -88.2431 65° Northeast 283 326 4,800 -919 Descending Chicago Center
Wed 08:09:53 PM 41.5725 -88.1503 65° Northeast 279 321 4,100 -387 Descending Chicago Center
Wed 08:10:55 PM 41.6036 -88.0578 66° East 275 316 4,000 -97 Descending Chicago Center
Wed 08:11:57 PM 41.6331 -87.9744 65° Northeast 259 298 3,900 -194 Descending Chicago Center
Wed 08:12:59 PM 41.6664 -87.9019 58° Northeast 244 281 3,600 -677 Descending Chicago Center
Wed 08:14:01 PM 41.7089 -87.8492 43° Northeast 225 259 2,500 -1,039 Descending Chicago Center
Wed 08:15:06 PM 41.7500 -87.8000 42° Northeast 142 163 1,400 -857 Descending Chicago TRACON
Wed 08:16:00 PM 41.7667 -87.7667 56° Northeast 131 151 800 -667 Descending Chicago TRACON
Wed 08:18:00 PM 41.7833 -87.7500 51° Northeast  Level FlightAware Approximate

Login

Don't have an account? Register now (free) for customized features, flight alerts, and more!